Time;durP1;ratioP1;P1;durP2;ratioP2;P2;SDS_P1;SDS_P2;PMS_P1;PMS_P2;Temp;Humidity;BMP_temperature;BMP_pressure;BME280_temperature;BME280_humidity;BME280_pressure;Samples;Min_cycle;Max_cycle;Signal;HPM_P1;HPM_P2
2021/06/02 00:02:12;;;;;;;11.15;4.97;;;11.90;81.20;;;;;;5053574;28;20024;-83
2021/06/02 00:04:44;;;;;;;6.60;5.50;;;11.90;81.40;;;;;;5053557;28;20029;-83
2021/06/02 00:07:13;;;;;;;6.15;5.28;;;11.80;81.90;;;;;;5052262;28;20384;-83
2021/06/02 00:09:39;;;;;;;7.93;6.38;;;11.80;82.20;;;;;;5052159;28;20032;-83
2021/06/02 00:12:10;;;;;;;8.05;6.85;;;11.70;82.50;;;;;;5051926;28;20029;-83
2021/06/02 00:14:36;;;;;;;10.05;6.07;;;11.60;82.90;;;;;;5053166;28;20017;-85
2021/06/02 00:17:03;;;;;;;10.32;7.13;;;11.60;83.30;;;;;;5055905;28;20846;-84
2021/06/02 00:19:29;;;;;;;13.02;7.47;;;11.50;83.70;;;;;;5062902;28;20822;-84
2021/06/02 00:21:57;;;;;;;9.30;6.65;;;11.50;84.20;;;;;;5054075;28;20033;-84
2021/06/02 00:24:23;;;;;;;8.65;6.03;;;11.50;84.80;;;;;;5052683;28;20029;-84
2021/06/02 00:26:54;;;;;;;8.73;6.65;;;11.50;84.70;;;;;;5052112;28;20467;-85
2021/06/02 00:29:24;;;;;;;6.93;6.22;;;11.50;85.00;;;;;;5051752;28;20056;-85
2021/06/02 00:31:52;;;;;;;10.73;6.80;;;11.50;85.10;;;;;;5055147;28;20032;-85
2021/06/02 00:34:19;;;;;;;9.57;6.65;;;11.50;85.20;;;;;;5058771;28;20029;-84
2021/06/02 00:36:45;;;;;;;10.38;6.53;;;11.50;85.40;;;;;;5056862;28;20020;-84
2021/06/02 00:39:13;;;;;;;9.32;6.75;;;11.50;85.50;;;;;;5055424;28;20021;-84
2021/06/02 00:41:41;;;;;;;8.82;6.65;;;11.50;85.90;;;;;;5055288;28;20025;-84
2021/06/02 00:44:09;;;;;;;9.60;6.72;;;11.50;86.10;;;;;;5055270;28;20029;-85
2021/06/02 00:46:37;;;;;;;10.60;6.93;;;11.50;86.10;;;;;;5059219;28;20104;-84
2021/06/02 00:49:05;;;;;;;9.55;6.97;;;11.50;86.30;;;;;;5057750;28;20079;-85
2021/06/02 00:51:31;;;;;;;9.20;7.10;;;11.50;86.40;;;;;;5071507;28;20052;-84
2021/06/02 00:53:58;;;;;;;8.48;6.88;;;11.50;86.60;;;;;;5063433;28;20036;-85
2021/06/02 00:56:41;;;;;;;9.65;6.82;;;11.50;86.80;;;;;;5076935;28;20060;-85
2021/06/02 00:59:09;;;;;;;10.38;6.78;;;11.50;87.00;;;;;;5072844;28;20180;-87
2021/06/02 01:01:35;;;;;;;10.40;7.05;;;11.50;86.90;;;;;;5074216;28;20021;-86
2021/06/02 01:04:03;;;;;;;9.40;7.10;;;11.50;87.10;;;;;;5066316;28;20036;-85
2021/06/02 01:06:30;;;;;;;9.45;6.93;;;11.50;87.20;;;;;;5067210;28;20352;-84
2021/06/02 01:09:00;;;;;;;10.23;6.72;;;11.50;87.20;;;;;;5076106;28;20017;-83
2021/06/02 01:11:28;;;;;;;10.15;6.65;;;11.40;87.30;;;;;;5077779;28;20017;-83
2021/06/02 01:13:55;;;;;;;9.68;6.57;;;11.50;87.50;;;;;;5068380;28;20045;-81
2021/06/02 01:16:25;;;;;;;7.68;6.88;;;11.40;87.50;;;;;;5057007;28;20029;-84
2021/06/02 01:18:51;;;;;;;7.90;6.65;;;11.40;87.80;;;;;;5057664;28;20024;-84
2021/06/02 01:21:23;;;;;;;11.80;7.10;;;11.40;88.70;;;;;;5055473;28;20029;-84
2021/06/02 01:23:55;;;;;;;9.32;7.35;;;11.40;88.30;;;;;;5054899;28;20514;-84
2021/06/02 01:26:23;;;;;;;9.73;6.72;;;11.40;88.30;;;;;;5054421;28;20687;-84
2021/06/02 01:28:50;;;;;;;11.25;6.90;;;11.40;88.40;;;;;;5056623;28;20041;-84
2021/06/02 01:31:45;;;;;;;9.90;6.70;;;11.30;88.60;;;;;;5054442;28;20078;-83
2021/06/02 01:34:41;;;;;;;8.05;6.88;;;11.30;88.90;;;;;;5057869;28;20029;-84
2021/06/02 01:37:45;;;;;;;8.63;6.60;;;11.30;89.20;;;;;;5064796;28;20025;-84
2021/06/02 01:40:32;;;;;;;17.65;6.70;;;11.30;89.40;;;;;;5047937;28;20029;-84
2021/06/02 01:43:12;;;;;;;12.10;6.20;;;11.30;89.50;;;;;;5053678;28;20021;-86
2021/06/02 01:45:58;;;;;;;8.95;6.07;;;11.30;89.80;;;;;;5054996;28;20141;-85
2021/06/02 01:48:34;;;;;;;8.43;6.50;;;11.30;90.00;;;;;;5055279;28;20029;-86
2021/06/02 01:51:28;;;;;;;11.05;6.65;;;11.20;90.00;;;;;;5055402;28;20029;-86
2021/06/02 01:54:13;;;;;;;8.90;6.50;;;11.30;90.20;;;;;;5055181;28;20035;-88
2021/06/02 01:57:13;;;;;;;7.55;6.30;;;11.30;90.30;;;;;;5055044;28;20337;-87
2021/06/02 01:59:51;;;;;;;10.20;6.95;;;11.20;90.30;;;;;;5035854;28;20522;-87
2021/06/02 02:02:35;;;;;;;9.73;7.25;;;11.20;90.40;;;;;;5054540;28;20445;-89
2021/06/02 02:05:27;;;;;;;9.63;6.28;;;11.20;90.60;;;;;;5053686;28;20021;-87
2021/06/02 02:07:56;;;;;;;;;;;11.20;90.70;;;;;;5054257;28;20017;-87
2021/06/02 02:10:50;;;;;;;10.55;6.28;;;11.20;90.50;;;;;;5055813;28;19987;-87
2021/06/02 02:13:31;;;;;;;9.35;6.30;;;11.20;90.60;;;;;;5069325;28;20037;-87
2021/06/02 02:16:08;;;;;;;10.65;7.38;;;11.20;90.90;;;;;;5066284;28;20025;-88
2021/06/02 02:18:46;;;;;;;8.90;7.13;;;11.20;90.90;;;;;;5054167;28;20021;-87
2021/06/02 02:21:51;;;;;;;8.13;7.05;;;11.10;91.20;;;;;;5054641;28;20092;-87
2021/06/02 02:24:24;;;;;;;9.68;7.60;;;11.10;91.40;;;;;;5053396;28;20025;-87
2021/06/02 02:26:56;;;;;;;7.88;6.18;;;11.10;91.40;;;;;;5053253;28;20025;-88
2021/06/02 02:29:31;;;;;;;;;;;11.10;91.60;;;;;;5052336;28;20128;-89
2021/06/02 02:32:03;;;;;;;9.57;7.40;;;11.10;91.50;;;;;;5052402;28;19953;-87
2021/06/02 02:34:38;;;;;;;8.77;6.97;;;11.10;91.70;;;;;;5053211;28;20048;-85
2021/06/02 02:37:06;;;;;;;8.88;6.93;;;11.10;91.90;;;;;;5054296;28;20077;-84
2021/06/02 02:39:49;;;;;;;10.65;6.90;;;11.10;92.00;;;;;;5052752;28;20025;-85
2021/06/02 02:42:49;;;;;;;10.85;7.30;;;11.10;92.10;;;;;;5054404;28;20367;-86
2021/06/02 02:45:34;;;;;;;7.55;6.53;;;11.10;92.30;;;;;;5060038;28;20001;-86
2021/06/02 02:48:15;;;;;;;11.48;7.15;;;11.10;92.40;;;;;;5065201;28;20025;-86
2021/06/02 02:50:52;;;;;;;7.50;6.47;;;11.10;92.60;;;;;;5065102;28;20049;-85
2021/06/02 02:53:39;;;;;;;9.35;6.63;;;11.20;92.70;;;;;;5076307;28;20037;-87
2021/06/02 02:56:16;;;;;;;9.10;7.32;;;11.10;92.70;;;;;;5076536;28;20039;-86
2021/06/02 02:58:55;;;;;;;10.77;7.10;;;11.20;92.80;;;;;;5073449;28;20029;-86
2021/06/02 03:01:27;;;;;;;11.60;6.45;;;11.20;92.90;;;;;;5057197;28;20025;-87
2021/06/02 03:04:06;;;;;;;8.13;6.50;;;11.20;92.90;;;;;;5054983;28;20452;-87
2021/06/02 03:06:40;;;;;;;8.23;6.43;;;11.30;93.00;;;;;;5055707;28;20475;-87
2021/06/02 03:09:38;;;;;;;6.85;6.10;;;11.30;93.00;;;;;;5054621;28;20035;-87
2021/06/02 03:12:18;;;;;;;8.35;6.50;;;11.30;93.00;;;;;;5053135;28;20021;-87
2021/06/02 03:15:02;;;;;;;10.70;6.57;;;11.30;93.00;;;;;;5053633;28;20029;-87
2021/06/02 03:17:51;;;;;;;12.75;6.55;;;11.30;93.10;;;;;;5052610;28;20106;-87
2021/06/02 03:20:34;;;;;;;7.82;6.43;;;11.30;93.10;;;;;;5050539;28;20037;-85
2021/06/02 03:23:25;;;;;;;7.30;6.43;;;11.30;93.00;;;;;;5054384;28;20111;-85
2021/06/02 03:26:10;;;;;;;7.43;5.70;;;11.30;93.10;;;;;;5063999;28;20025;-85
2021/06/02 03:28:57;;;;;;;8.73;6.43;;;11.30;93.00;;;;;;5060195;28;20059;-85
2021/06/02 03:31:31;;;;;;;7.68;5.97;;;11.30;93.10;;;;;;5053691;28;20407;-84
2021/06/02 03:34:21;;;;;;;8.52;6.40;;;11.30;93.20;;;;;;5052562;28;20033;-85
2021/06/02 03:37:24;;;;;;;8.25;5.97;;;11.30;93.30;;;;;;5047479;28;20056;-84
2021/06/02 03:40:02;;;;;;;8.07;6.00;;;11.30;93.20;;;;;;5052466;28;20021;-84
2021/06/02 03:42:40;;;;;;;7.90;6.22;;;11.20;93.40;;;;;;5052262;28;20438;-85
2021/06/02 03:45:54;;;;;;;8.77;6.28;;;11.20;93.50;;;;;;5053458;28;20021;-85
2021/06/02 03:48:29;;;;;;;6.68;5.75;;;11.20;93.60;;;;;;5053081;28;20025;-86
2021/06/02 03:51:01;;;;;;;9.57;6.03;;;11.20;93.70;;;;;;5052053;28;20031;-85
2021/06/02 03:53:30;;;;;;;7.63;6.05;;;11.30;93.80;;;;;;5052268;28;20052;-86
2021/06/02 03:56:05;;;;;;;8.90;6.28;;;11.20;93.90;;;;;;5052547;28;20024;-86
2021/06/02 03:59:22;;;;;;;8.85;6.00;;;11.20;93.90;;;;;;5052575;28;20025;-86
2021/06/02 04:01:51;;;;;;;7.40;6.20;;;11.30;94.00;;;;;;5052390;28;20056;-85
2021/06/02 04:04:31;;;;;;;6.80;5.93;;;11.30;94.00;;;;;;5063502;28;20183;-86
2021/06/02 04:07:47;;;;;;;6.88;6.25;;;11.30;94.00;;;;;;5056141;28;20036;-86
2021/06/02 04:10:25;;;;;;;7.43;6.18;;;11.30;94.10;;;;;;5037693;28;20442;-85
2021/06/02 04:13:04;;;;;;;6.10;5.50;;;11.30;94.40;;;;;;5057354;28;20021;-86
2021/06/02 04:15:30;;;;;;;7.32;6.07;;;11.30;94.20;;;;;;5055923;28;20025;-86
2021/06/02 04:17:57;;;;;;;9.20;6.15;;;11.30;94.30;;;;;;5056927;28;20021;-86
2021/06/02 04:20:24;;;;;;;8.50;6.07;;;11.30;94.40;;;;;;5055647;28;20017;-84
2021/06/02 04:22:51;;;;;;;7.53;5.50;;;11.40;94.50;;;;;;5057902;28;20029;-84
2021/06/02 04:25:18;;;;;;;7.30;5.72;;;11.40;94.50;;;;;;5056595;28;20375;-84
2021/06/02 04:27:48;;;;;;;6.10;5.50;;;11.40;94.50;;;;;;5057370;28;20118;-83
2021/06/02 04:30:17;;;;;;;7.97;5.82;;;11.40;94.50;;;;;;5057039;28;20175;-84
2021/06/02 04:32:45;;;;;;;10.48;6.80;;;11.40;94.50;;;;;;5057401;28;20048;-87
2021/06/02 04:35:18;;;;;;;6.40;5.28;;;11.50;94.50;;;;;;5056246;28;20074;-87
2021/06/02 04:37:46;;;;;;;7.45;5.93;;;11.40;94.40;;;;;;5068469;28;20025;-83
2021/06/02 04:40:12;;;;;;;8.45;6.28;;;11.40;94.50;;;;;;5069093;28;20426;-83
2021/06/02 04:42:40;;;;;;;7.35;5.85;;;11.40;94.60;;;;;;5073415;28;20021;-85
2021/06/02 04:45:13;;;;;;;6.32;5.72;;;11.40;94.80;;;;;;5074155;28;20013;-83
2021/06/02 04:47:40;;;;;;;6.38;5.35;;;11.40;94.90;;;;;;5057859;28;20052;-83
2021/06/02 04:50:06;;;;;;;7.10;6.15;;;11.40;94.80;;;;;;5056459;28;20028;-84
2021/06/02 04:52:54;;;;;;;8.48;5.90;;;11.40;95.00;;;;;;5057230;28;20103;-86
2021/06/02 04:55:33;;;;;;;8.95;6.57;;;11.40;95.00;;;;;;5056615;28;20044;-87
2021/06/02 04:58:34;;;;;;;9.27;6.50;;;11.50;95.00;;;;;;5056211;28;20028;-87
2021/06/02 05:01:09;;;;;;;7.47;6.40;;;11.50;95.10;;;;;;5056422;28;20033;-87
2021/06/02 05:04:12;;;;;;;7.10;6.40;;;11.40;95.20;;;;;;5055609;28;20033;-88
2021/06/02 05:06:56;;;;;;;7.85;6.22;;;11.50;95.40;;;;;;5055314;28;20031;-86
2021/06/02 05:09:46;;;;;;;8.57;6.47;;;11.50;95.40;;;;;;5056380;28;20017;-85
2021/06/02 05:12:30;;;;;;;8.30;6.15;;;11.50;95.60;;;;;;5055104;28;20089;-86
2021/06/02 05:15:24;;;;;;;9.40;6.15;;;11.50;95.50;;;;;;5053372;28;20036;-86
2021/06/02 05:17:55;;;;;;;9.73;6.30;;;11.50;95.50;;;;;;5060800;28;20094;-84
2021/06/02 05:23:52;;;;;;;7.57;6.18;;;11.50;95.80;;;;;;5057441;28;20021;-85
2021/06/02 05:26:49;;;;;;;8.02;6.60;;;11.50;95.80;;;;;;5054833;28;20078;-85
2021/06/02 05:29:49;;;;;;;9.07;6.50;;;11.50;96.00;;;;;;5057652;28;20053;-85
2021/06/02 05:32:39;;;;;;;8.70;6.32;;;11.50;96.20;;;;;;5057521;28;20020;-87
2021/06/02 05:35:43;;;;;;;10.25;7.10;;;11.50;96.20;;;;;;5055359;28;20025;-87
2021/06/02 05:38:48;;;;;;;7.75;6.95;;;11.50;96.30;;;;;;5055175;28;20027;-85
2021/06/02 05:41:25;;;;;;;8.45;6.60;;;11.50;96.50;;;;;;5053810;28;20480;-84
2021/06/02 05:45:00;;;;;;;10.07;6.65;;;11.50;96.50;;;;;;5054504;28;20029;-87
2021/06/02 05:48:07;;;;;;;10.32;6.70;;;11.50;96.60;;;;;;5054562;28;20124;-92
2021/06/02 05:51:36;;;;;;;8.90;5.95;;;11.50;96.80;;;;;;5059008;28;20032;-93
2021/06/02 05:58:08;;;;;;;7.07;6.38;;;11.60;97.20;;;;;;5015474;28;20049;-85
2021/06/02 06:01:21;;;;;;;8.93;6.90;;;11.60;97.20;;;;;;5018328;28;20033;-85
2021/06/02 06:04:45;;;;;;;7.75;6.07;;;11.70;97.40;;;;;;5020986;28;20026;-86
2021/06/02 06:07:47;;;;;;;8.85;5.85;;;11.70;97.40;;;;;;4956777;28;20047;-86
2021/06/02 06:11:00;;;;;;;;;;;;;;;;;;;;;
2021/06/02 06:14:16;;;;;;;;;;;;;;;;;;;;;
2021/06/02 06:23:43;;;;;;;16.35;7.18;;;11.80;97.60;;;;;;4968132;28;20050;-86
2021/06/02 06:26:23;;;;;;;7.95;5.95;;;11.80;97.70;;;;;;4967088;28;20030;-84
2021/06/02 06:28:55;;;;;;;10.32;6.95;;;11.80;97.70;;;;;;4964051;28;20050;-85
2021/06/02 06:31:28;;;;;;;12.23;6.85;;;11.80;97.70;;;;;;4968628;28;20035;-92
2021/06/02 06:33:56;;;;;;;11.57;6.97;;;11.90;97.80;;;;;;4976404;28;20035;-87
2021/06/02 06:36:25;;;;;;;10.32;6.45;;;11.90;97.80;;;;;;4976341;28;20035;-91
2021/06/02 06:38:53;;;;;;;12.88;6.20;;;12.00;98.00;;;;;;4974857;28;20030;-89
2021/06/02 06:41:33;;;;;;;8.57;5.97;;;12.00;97.80;;;;;;4958919;28;20083;-87
2021/06/02 06:44:01;;;;;;;6.68;5.53;;;12.10;97.80;;;;;;4989646;28;20038;-92
2021/06/02 06:46:29;;;;;;;7.75;6.07;;;12.20;97.60;;;;;;5012508;28;20030;-89
2021/06/02 06:48:57;;;;;;;7.15;6.13;;;12.20;97.40;;;;;;4994015;28;20154;-91
2021/06/02 06:51:26;;;;;;;8.15;5.82;;;12.20;97.40;;;;;;4993526;28;20069;-87
2021/06/02 06:53:53;;;;;;;7.13;5.32;;;12.30;97.10;;;;;;4993122;28;20026;-87
2021/06/02 06:56:32;;;;;;;8.45;5.75;;;12.30;97.10;;;;;;5007387;28;20088;-85
2021/06/02 06:59:01;;;;;;;8.20;5.53;;;12.30;97.00;;;;;;5033087;28;20029;-88
2021/06/02 07:01:37;;;;;;;8.93;7.10;;;12.40;97.00;;;;;;5035403;28;20029;-87
2021/06/02 07:04:06;;;;;;;7.78;6.97;;;12.50;96.80;;;;;;5034508;28;20035;-88
2021/06/02 07:06:35;;;;;;;6.85;5.50;;;12.50;96.70;;;;;;5040888;28;20025;-85
2021/06/02 07:09:08;;;;;;;9.15;5.50;;;12.50;96.60;;;;;;5039761;28;20026;-86
2021/06/02 07:11:42;;;;;;;7.72;5.60;;;12.60;96.60;;;;;;5033851;28;20079;-84
2021/06/02 07:14:19;;;;;;;9.50;5.43;;;12.60;96.50;;;;;;5032777;28;20036;-85
2021/06/02 07:16:45;;;;;;;9.32;5.45;;;12.60;96.40;;;;;;5049099;28;20029;-85
2021/06/02 07:19:13;;;;;;;11.25;5.40;;;12.70;96.30;;;;;;5033272;28;20043;-84
2021/06/02 07:21:44;;;;;;;8.93;5.60;;;12.70;96.10;;;;;;5033585;28;20095;-84
2021/06/02 07:24:18;;;;;;;7.30;5.13;;;12.80;96.00;;;;;;5032901;28;20040;-85
2021/06/02 07:26:47;;;;;;;7.72;5.63;;;12.80;95.70;;;;;;5032994;28;20041;-84
2021/06/02 07:29:14;;;;;;;17.38;6.72;;;12.80;95.80;;;;;;5032024;28;20053;-84
2021/06/02 07:31:42;;;;;;;9.57;6.10;;;12.80;95.80;;;;;;5033179;28;20036;-84
2021/06/02 07:34:08;;;;;;;8.32;5.72;;;12.90;95.70;;;;;;5031873;28;20455;-84
2021/06/02 07:36:34;;;;;;;9.05;6.25;;;12.90;95.60;;;;;;5048738;28;20109;-85
2021/06/02 07:39:01;;;;;;;11.30;4.97;;;13.00;95.70;;;;;;5033379;28;20046;-85
2021/06/02 07:41:27;;;;;;;8.32;5.20;;;12.90;95.40;;;;;;5034825;28;20025;-85
2021/06/02 07:43:53;;;;;;;9.32;5.30;;;13.00;95.10;;;;;;5036225;28;20030;-86
2021/06/02 07:46:18;;;;;;;7.18;4.53;;;13.00;95.10;;;;;;5042498;28;20050;-86
2021/06/02 07:48:44;;;;;;;7.72;5.10;;;13.00;95.00;;;;;;5039546;28;20030;-85
2021/06/02 07:51:10;;;;;;;5.22;4.72;;;13.10;95.10;;;;;;5036918;28;20514;-85
2021/06/02 07:53:36;;;;;;;6.63;4.90;;;13.10;94.60;;;;;;5037128;28;20036;-83
2021/06/02 07:56:02;;;;;;;7.78;4.93;;;13.10;94.50;;;;;;5036370;28;20026;-86
2021/06/02 07:58:27;;;;;;;11.30;5.07;;;13.20;94.30;;;;;;5035794;28;20397;-86
2021/06/02 08:00:53;;;;;;;6.97;4.97;;;13.20;94.20;;;;;;5037459;28;20022;-86
2021/06/02 08:03:19;;;;;;;9.75;5.05;;;13.30;93.90;;;;;;5035653;28;20026;-86
2021/06/02 08:05:45;;;;;;;10.05;6.03;;;13.30;93.50;;;;;;5035790;28;20395;-86
2021/06/02 08:08:11;;;;;;;12.02;5.45;;;13.30;93.30;;;;;;5036259;28;20058;-86
2021/06/02 08:10:37;;;;;;;8.43;5.00;;;13.30;93.40;;;;;;5057200;28;20033;-85
2021/06/02 08:13:03;;;;;;;9.57;6.28;;;13.30;93.40;;;;;;5056699;28;20021;-84
2021/06/02 08:15:33;;;;;;;7.03;4.63;;;13.40;93.40;;;;;;5057224;28;20029;-85
2021/06/02 08:17:59;;;;;;;7.35;4.88;;;13.40;93.00;;;;;;5057586;28;20025;-84
2021/06/02 08:20:25;;;;;;;6.80;5.22;;;13.40;93.00;;;;;;5060253;28;20066;-84
2021/06/02 08:22:51;;;;;;;11.60;6.28;;;13.50;92.90;;;;;;5059901;28;20083;-83
2021/06/02 08:25:17;;;;;;;11.40;7.20;;;13.60;92.70;;;;;;5061338;28;20021;-84
2021/06/02 08:27:45;;;;;;;7.85;5.95;;;13.60;92.60;;;;;;5064415;28;20070;-86
2021/06/02 08:30:11;;;;;;;5.55;4.25;;;13.70;92.40;;;;;;5055073;28;20116;-84
2021/06/02 08:32:39;;;;;;;7.03;4.40;;;13.70;92.30;;;;;;5056478;28;20029;-85
2021/06/02 08:35:08;;;;;;;7.97;4.65;;;13.70;92.10;;;;;;5054887;28;20021;-84
2021/06/02 08:37:33;;;;;;;7.65;5.20;;;13.70;91.70;;;;;;5055814;28;20017;-87
2021/06/02 08:39:59;;;;;;;11.63;5.47;;;13.70;91.30;;;;;;5056794;28;20716;-84
2021/06/02 08:42:25;;;;;;;10.85;6.10;;;13.60;91.40;;;;;;5055885;28;20036;-85
2021/06/02 08:44:52;;;;;;;9.02;5.90;;;13.50;91.80;;;;;;5055995;28;20017;-86
2021/06/02 08:47:18;;;;;;;9.18;5.60;;;13.50;92.20;;;;;;5055964;28;20503;-85
2021/06/02 08:49:44;;;;;;;8.32;6.00;;;13.50;92.30;;;;;;5054642;28;20032;-85
2021/06/02 08:52:10;;;;;;;9.85;5.57;;;13.50;92.60;;;;;;5055856;28;20017;-84
2021/06/02 08:54:36;;;;;;;12.18;6.65;;;13.50;92.70;;;;;;5055876;28;20023;-86
2021/06/02 08:57:05;;;;;;;9.07;6.50;;;13.50;92.70;;;;;;5056867;28;20049;-85
2021/06/02 08:59:32;;;;;;;11.60;6.00;;;13.60;92.90;;;;;;5062501;28;20025;-85
2021/06/02 09:01:58;;;;;;;12.50;7.60;;;13.50;92.90;;;;;;5056021;28;20439;-85
2021/06/02 09:04:25;;;;;;;12.35;7.45;;;13.50;93.00;;;;;;5055819;28;20468;-85
2021/06/02 09:06:51;;;;;;;7.55;5.25;;;13.60;93.10;;;;;;5055152;28;20067;-84
2021/06/02 09:09:18;;;;;;;11.20;5.82;;;13.60;93.10;;;;;;5055504;28;20025;-85
2021/06/02 09:11:50;;;;;;;8.48;4.72;;;13.60;92.90;;;;;;5054427;28;20391;-84
2021/06/02 09:14:26;;;;;;;7.78;5.28;;;13.50;93.00;;;;;;5054115;28;20139;-84
2021/06/02 09:16:57;;;;;;;9.10;5.82;;;13.60;93.20;;;;;;5055178;28;20114;-83
2021/06/02 09:19:47;;;;;;;12.88;6.60;;;13.60;93.20;;;;;;5053792;28;20103;-85
2021/06/02 09:22:15;;;;;;;9.23;6.15;;;13.60;93.40;;;;;;5054986;28;20472;-84
2021/06/02 09:24:47;;;;;;;13.70;6.22;;;13.70;93.50;;;;;;5056386;28;20036;-84
2021/06/02 09:27:12;;;;;;;8.55;5.80;;;13.70;93.40;;;;;;5054916;28;20037;-84
2021/06/02 09:29:52;;;;;;;11.25;6.55;;;13.70;93.50;;;;;;5055163;28;20037;-87
2021/06/02 09:32:21;;;;;;;7.22;5.15;;;13.70;93.50;;;;;;5055344;28;20036;-84
2021/06/02 09:34:47;;;;;;;13.60;7.43;;;13.80;93.50;;;;;;5064964;28;20078;-84
2021/06/02 09:37:13;;;;;;;10.85;6.47;;;13.70;93.20;;;;;;5059681;28;20530;-85
2021/06/02 09:39:44;;;;;;;7.82;4.85;;;13.80;93.00;;;;;;5056479;28;20053;-84
2021/06/02 09:42:26;;;;;;;7.00;4.72;;;13.80;93.00;;;;;;5054015;28;20033;-85
2021/06/02 09:45:10;;;;;;;7.63;5.90;;;13.80;93.10;;;;;;5053920;28;20124;-84
2021/06/02 09:47:55;;;;;;;13.85;7.20;;;13.80;93.30;;;;;;5052640;28;20267;-84
2021/06/02 09:50:31;;;;;;;9.20;5.63;;;13.90;93.30;;;;;;5053723;28;20029;-85
2021/06/02 09:52:59;;;;;;;9.82;5.75;;;13.90;93.30;;;;;;5054901;28;20029;-85
2021/06/02 09:55:26;;;;;;;8.05;5.68;;;13.90;93.20;;;;;;5052810;28;20025;-85
2021/06/02 09:58:00;;;;;;;8.23;5.88;;;13.90;93.20;;;;;;5054505;28;20397;-84
2021/06/02 10:00:26;;;;;;;11.27;5.80;;;13.80;93.30;;;;;;5052483;28;20048;-84
2021/06/02 10:03:18;;;;;;;8.02;6.05;;;13.80;93.40;;;;;;5055931;28;20080;-84
2021/06/02 10:05:49;;;;;;;7.23;5.97;;;13.80;93.70;;;;;;5054311;28;20760;-83
2021/06/02 10:08:27;;;;;;;10.70;7.05;;;13.70;93.80;;;;;;5057546;28;20335;-84
2021/06/02 10:10:53;;;;;;;11.27;6.90;;;13.70;94.00;;;;;;5059406;28;20426;-81
2021/06/02 10:13:22;;;;;;;9.20;6.30;;;13.80;94.30;;;;;;5061281;28;20065;-83
2021/06/02 10:15:49;;;;;;;10.93;6.97;;;13.80;94.40;;;;;;5065950;28;20060;-84
2021/06/02 10:18:32;;;;;;;13.73;6.00;;;13.80;94.50;;;;;;5059654;28;20025;-84
2021/06/02 10:21:08;;;;;;;6.60;5.68;;;13.90;94.40;;;;;;5052006;28;20025;-84
2021/06/02 10:23:38;;;;;;;6.82;5.15;;;13.90;94.50;;;;;;5053462;28;20036;-83
2021/06/02 10:26:05;;;;;;;9.40;6.13;;;13.90;94.30;;;;;;5053701;28;20017;-85
2021/06/02 10:28:32;;;;;;;9.65;6.05;;;13.90;94.50;;;;;;5052480;28;20098;-85
2021/06/02 10:31:03;;;;;;;9.95;6.70;;;14.00;94.50;;;;;;5054525;28;20534;-83
2021/06/02 10:33:29;;;;;;;7.25;5.32;;;14.10;94.70;;;;;;5052203;28;20040;-86
2021/06/02 10:35:57;;;;;;;12.02;7.07;;;14.20;95.10;;;;;;5052696;28;20021;-84
2021/06/02 10:38:25;;;;;;;7.68;5.70;;;14.20;94.80;;;;;;5053768;28;20090;-83
2021/06/02 10:40:52;;;;;;;8.90;5.45;;;14.30;95.10;;;;;;5052198;28;20021;-82
2021/06/02 10:43:40;;;;;;;7.95;6.43;;;14.40;94.80;;;;;;5056868;28;20025;-84
2021/06/02 10:46:12;;;;;;;10.18;7.57;;;14.50;94.70;;;;;;5051876;28;20036;-83
2021/06/02 10:48:41;;;;;;;9.95;6.57;;;14.50;94.40;;;;;;5057100;28;20029;-84
2021/06/02 10:51:23;;;;;;;12.90;6.30;;;14.60;94.40;;;;;;5063208;28;20036;-86
2021/06/02 10:54:19;;;;;;;12.38;5.20;;;14.60;94.30;;;;;;5068413;28;20032;-85
2021/06/02 10:56:57;;;;;;;10.82;4.90;;;14.70;94.20;;;;;;5053007;28;20024;-85
2021/06/02 10:59:31;;;;;;;8.77;5.90;;;14.60;94.00;;;;;;5053200;28;20048;-84
2021/06/02 11:02:08;;;;;;;10.25;5.88;;;14.70;93.90;;;;;;5051737;28;20104;-84
2021/06/02 11:04:42;;;;;;;7.75;5.30;;;14.70;93.70;;;;;;5053716;28;20139;-85
2021/06/02 11:07:27;;;;;;;8.25;5.43;;;14.70;93.40;;;;;;5051930;28;20032;-88
2021/06/02 11:10:06;;;;;;;13.43;6.30;;;14.70;93.40;;;;;;5051805;28;20055;-86
2021/06/02 11:12:44;;;;;;;11.10;5.43;;;14.60;93.40;;;;;;5051522;28;20035;-85
2021/06/02 11:15:34;;;;;;;9.07;6.22;;;14.60;93.40;;;;;;5051104;28;20402;-85
2021/06/02 11:18:09;;;;;;;8.63;6.53;;;14.50;93.50;;;;;;5042546;28;20040;-85
2021/06/02 11:21:00;;;;;;;11.07;5.85;;;14.40;93.50;;;;;;5051753;28;20367;-85
2021/06/02 11:23:32;;;;;;;7.88;5.82;;;14.40;93.80;;;;;;5051555;28;20078;-83
2021/06/02 11:26:21;;;;;;;11.35;5.90;;;14.40;94.10;;;;;;5054367;28;20063;-85
2021/06/02 11:28:48;;;;;;;8.40;5.95;;;14.40;94.30;;;;;;5054139;28;20045;-84
2021/06/02 11:31:25;;;;;;;9.30;5.88;;;14.40;94.40;;;;;;5053290;28;20029;-84
2021/06/02 11:33:53;;;;;;;9.93;6.75;;;14.50;94.50;;;;;;5051675;28;20037;-85
2021/06/02 11:36:19;;;;;;;10.52;6.03;;;14.50;94.60;;;;;;5051837;28;20117;-85
2021/06/02 11:38:45;;;;;;;12.90;5.70;;;14.50;94.70;;;;;;5053290;28;20057;-85
2021/06/02 11:41:12;;;;;;;12.07;6.15;;;14.50;94.70;;;;;;5053365;28;20025;-84
2021/06/02 11:43:39;;;;;;;9.38;5.40;;;14.60;94.70;;;;;;5052765;28;20092;-85
2021/06/02 11:46:05;;;;;;;8.38;6.10;;;14.60;94.60;;;;;;5052509;28;20033;-84
2021/06/02 11:48:34;;;;;;;12.98;7.13;;;14.50;94.30;;;;;;5050724;28;20028;-85
2021/06/02 11:51:04;;;;;;;12.40;6.78;;;14.40;94.90;;;;;;5050947;28;20032;-85
2021/06/02 11:53:41;;;;;;;14.95;8.43;;;14.40;95.90;;;;;;5051192;28;20079;-84
2021/06/02 11:56:07;;;;;;;8.23;6.90;;;14.40;96.90;;;;;;5051664;28;20517;-83
2021/06/02 11:58:33;;;;;;;15.23;6.95;;;14.40;97.50;;;;;;5055180;28;20021;-83
2021/06/02 12:00:59;;;;;;;11.40;6.93;;;14.40;98.40;;;;;;5053475;28;20455;-80
2021/06/02 12:03:25;;;;;;;15.93;7.82;;;14.30;98.90;;;;;;5054264;28;20087;-84
2021/06/02 12:05:54;;;;;;;12.23;7.78;;;14.30;99.60;;;;;;5057705;28;20505;-81
2021/06/02 12:08:20;;;;;;;12.20;7.90;;;14.30;99.90;;;;;;5051117;28;20112;-81
2021/06/02 12:10:50;;;;;;;18.45;10.10;;;14.20;99.90;;;;;;5056956;28;20049;-82
2021/06/02 12:13:27;;;;;;;17.98;7.80;;;14.20;99.90;;;;;;5052964;28;20056;-79
2021/06/02 12:15:58;;;;;;;14.75;8.27;;;14.20;99.90;;;;;;5058620;28;20025;-82
2021/06/02 12:18:45;;;;;;;12.98;8.00;;;14.20;99.90;;;;;;5051497;28;20166;-81
2021/06/02 12:21:27;;;;;;;16.02;7.47;;;14.20;99.90;;;;;;5052238;28;20832;-84
2021/06/02 12:24:08;;;;;;;13.80;7.47;;;14.20;99.90;;;;;;5051098;28;20545;-84
2021/06/02 12:26:44;;;;;;;12.50;8.63;;;14.20;99.90;;;;;;5052604;28;20124;-83
2021/06/02 12:29:17;;;;;;;10.68;7.75;;;14.20;99.90;;;;;;5056025;28;20048;-85
2021/06/02 12:31:49;;;;;;;14.05;8.50;;;14.20;99.90;;;;;;5055487;28;20029;-82
2021/06/02 12:34:24;;;;;;;18.55;9.10;;;14.20;99.90;;;;;;5054743;28;20040;-81
2021/06/02 12:36:58;;;;;;;12.40;8.15;;;14.20;99.90;;;;;;5054959;28;20086;-81
2021/06/02 12:39:29;;;;;;;14.85;8.35;;;14.30;99.90;;;;;;5062576;28;20021;-82
2021/06/02 12:41:56;;;;;;;13.48;8.13;;;14.30;99.90;;;;;;5061478;28;20048;-80
2021/06/02 12:44:24;;;;;;;14.57;8.27;;;14.30;99.90;;;;;;5056098;28;20032;-81
2021/06/02 12:47:09;;;;;;;13.65;8.00;;;14.40;99.90;;;;;;5060237;28;20021;-82
2021/06/02 12:49:44;;;;;;;15.10;8.93;;;14.30;99.90;;;;;;5054952;28;20029;-81
2021/06/02 12:52:10;;;;;;;11.43;7.97;;;14.30;99.90;;;;;;5060660;28;20024;-82
2021/06/02 12:54:38;;;;;;;13.95;8.93;;;14.40;99.90;;;;;;5060309;28;20044;-82
2021/06/02 12:57:04;;;;;;;18.55;9.10;;;14.40;99.90;;;;;;5057233;28;20021;-82
2021/06/02 12:59:32;;;;;;;12.38;8.68;;;14.40;99.90;;;;;;5056158;28;20031;-80
2021/06/02 13:02:04;;;;;;;18.15;10.75;;;14.40;99.90;;;;;;5053203;28;20021;-82
2021/06/02 13:04:36;;;;;;;17.98;9.50;;;14.50;99.90;;;;;;5054648;28;20387;-80
2021/06/02 13:07:03;;;;;;;13.45;7.93;;;14.50;99.90;;;;;;5054102;28;20039;-81
2021/06/02 13:09:29;;;;;;;20.40;12.20;;;14.50;99.90;;;;;;5054448;28;20790;-82
2021/06/02 13:11:55;;;;;;;13.32;8.93;;;14.50;99.90;;;;;;5054573;28;20107;-81
2021/06/02 13:14:34;;;;;;;13.70;8.10;;;14.60;99.90;;;;;;5054458;28;20044;-83
2021/06/02 13:17:00;;;;;;;16.48;9.13;;;14.60;99.90;;;;;;5053884;28;20013;-83
2021/06/02 13:19:52;;;;;;;13.95;8.40;;;14.60;99.90;;;;;;5056187;28;20116;-83
2021/06/02 13:22:20;;;;;;;18.30;9.68;;;14.60;99.90;;;;;;5058041;28;20444;-82
2021/06/02 13:24:49;;;;;;;18.60;9.23;;;14.70;99.90;;;;;;5054753;28;20064;-83
2021/06/02 13:27:18;;;;;;;15.50;9.63;;;14.80;99.90;;;;;;5051827;28;20432;-82
2021/06/02 13:30:01;;;;;;;14.57;10.05;;;14.80;99.90;;;;;;5053420;28;20474;-83
2021/06/02 13:32:26;;;;;;;19.00;10.43;;;14.80;99.90;;;;;;5053568;28;20074;-83
2021/06/02 13:34:52;;;;;;;20.98;11.77;;;14.90;99.90;;;;;;5053460;28;20033;-83
2021/06/02 13:37:20;;;;;;;22.02;13.55;;;14.90;99.90;;;;;;5052400;28;20045;-80
2021/06/02 13:40:12;;;;;;;22.92;14.50;;;15.00;99.90;;;;;;5053803;28;20071;-82
2021/06/02 13:43:09;;;;;;;15.63;12.55;;;15.00;99.90;;;;;;5052999;28;20028;-81